sensor_id;sensor_type;location;lat;lon;timestamp;P1;durP1;ratioP1;P2;durP2;ratioP2
71296;SDS011;59082;50.658;4.608;2022-10-18T05:34:04;33.88;;;17.83;;
71296;SDS011;59082;50.658;4.608;2022-10-18T05:36:29;32.70;;;19.43;;
71296;SDS011;59082;50.658;4.608;2022-10-18T05:38:55;33.93;;;18.47;;
71296;SDS011;59082;50.658;4.608;2022-10-18T05:41:22;33.17;;;17.80;;
71296;SDS011;59082;50.658;4.608;2022-10-18T05:43:53;36.20;;;17.80;;
71296;SDS011;59082;50.658;4.608;2022-10-18T05:46:18;31.75;;;18.58;;
71296;SDS011;59082;50.658;4.608;2022-10-18T05:48:47;37.90;;;19.27;;
71296;SDS011;59082;50.658;4.608;2022-10-18T05:51:15;34.05;;;18.52;;
71296;SDS011;59082;50.658;4.608;2022-10-18T05:53:43;36.27;;;18.07;;
71296;SDS011;59082;50.658;4.608;2022-10-18T05:56:09;36.33;;;18.83;;
71296;SDS011;59082;50.658;4.608;2022-10-18T05:58:39;32.35;;;18.83;;
71296;SDS011;59082;50.658;4.608;2022-10-18T06:01:05;39.63;;;18.93;;
71296;SDS011;59082;50.658;4.608;2022-10-18T06:03:32;34.13;;;17.83;;
71296;SDS011;59082;50.658;4.608;2022-10-18T06:06:08;33.72;;;17.60;;
71296;SDS011;59082;50.658;4.608;2022-10-18T06:08:35;30.45;;;17.63;;
71296;SDS011;59082;50.658;4.608;2022-10-18T06:11:05;31.60;;;17.35;;
71296;SDS011;59082;50.658;4.608;2022-10-18T06:13:32;33.03;;;17.70;;
71296;SDS011;59082;50.658;4.608;2022-10-18T06:15:57;31.20;;;16.92;;
71296;SDS011;59082;50.658;4.608;2022-10-18T06:18:23;34.37;;;17.57;;
71296;SDS011;59082;50.658;4.608;2022-10-18T06:20:49;29.08;;;18.40;;
71296;SDS011;59082;50.658;4.608;2022-10-18T06:23:21;31.83;;;17.38;;
71296;SDS011;59082;50.658;4.608;2022-10-18T06:25:46;26.00;;;16.00;;
71296;SDS011;59082;50.658;4.608;2022-10-18T06:28:12;23.87;;;13.83;;
71296;SDS011;59082;50.658;4.608;2022-10-18T06:30:37;27.73;;;14.07;;
71296;SDS011;59082;50.658;4.608;2022-10-18T06:33:02;29.67;;;14.60;;
71296;SDS011;59082;50.658;4.608;2022-10-18T06:35:28;27.53;;;14.63;;
71296;SDS011;59082;50.658;4.608;2022-10-18T06:37:53;27.43;;;15.27;;
71296;SDS011;59082;50.658;4.608;2022-10-18T06:40:19;31.03;;;15.63;;
71296;SDS011;59082;50.658;4.608;2022-10-18T06:42:44;26.38;;;14.27;;
71296;SDS011;59082;50.658;4.608;2022-10-18T06:45:11;28.13;;;14.23;;
71296;SDS011;59082;50.658;4.608;2022-10-18T06:47:37;34.08;;;15.82;;
71296;SDS011;59082;50.658;4.608;2022-10-18T06:50:02;33.73;;;16.40;;
71296;SDS011;59082;50.658;4.608;2022-10-18T06:52:28;30.45;;;15.73;;
71296;SDS011;59082;50.658;4.608;2022-10-18T06:54:53;27.23;;;14.70;;
71296;SDS011;59082;50.658;4.608;2022-10-18T06:57:19;32.43;;;15.97;;
71296;SDS011;59082;50.658;4.608;2022-10-18T06:59:45;30.83;;;17.00;;
71296;SDS011;59082;50.658;4.608;2022-10-18T07:02:13;30.87;;;16.93;;
71296;SDS011;59082;50.658;4.608;2022-10-18T07:04:39;35.53;;;18.52;;
71296;SDS011;59082;50.658;4.608;2022-10-18T07:07:04;32.28;;;16.55;;
71296;SDS011;59082;50.658;4.608;2022-10-18T07:09:30;30.60;;;17.50;;
71296;SDS011;59082;50.658;4.608;2022-10-18T07:11:55;33.67;;;17.33;;
71296;SDS011;59082;50.658;4.608;2022-10-18T07:14:21;34.33;;;17.03;;
71296;SDS011;59082;50.658;4.608;2022-10-18T07:16:46;31.38;;;16.77;;
71296;SDS011;59082;50.658;4.608;2022-10-18T07:19:12;30.20;;;16.57;;
71296;SDS011;59082;50.658;4.608;2022-10-18T07:21:39;29.45;;;15.38;;
71296;SDS011;59082;50.658;4.608;2022-10-18T07:24:04;29.70;;;15.87;;
71296;SDS011;59082;50.658;4.608;2022-10-18T07:26:31;27.15;;;15.55;;
71296;SDS011;59082;50.658;4.608;2022-10-18T07:28:59;25.48;;;14.75;;
71296;SDS011;59082;50.658;4.608;2022-10-18T07:31:26;26.10;;;15.40;;
71296;SDS011;59082;50.658;4.608;2022-10-18T07:33:52;29.37;;;15.77;;
71296;SDS011;59082;50.658;4.608;2022-10-18T07:36:18;24.00;;;14.40;;
71296;SDS011;59082;50.658;4.608;2022-10-18T07:38:45;26.65;;;15.80;;
71296;SDS011;59082;50.658;4.608;2022-10-18T07:41:11;25.40;;;14.43;;
71296;SDS011;59082;50.658;4.608;2022-10-18T07:43:41;25.83;;;15.48;;
71296;SDS011;59082;50.658;4.608;2022-10-18T07:46:10;23.80;;;14.55;;
71296;SDS011;59082;50.658;4.608;2022-10-18T07:48:36;28.93;;;15.27;;
71296;SDS011;59082;50.658;4.608;2022-10-18T07:51:02;27.95;;;14.93;;
71296;SDS011;59082;50.658;4.608;2022-10-18T07:53:28;22.97;;;13.23;;
71296;SDS011;59082;50.658;4.608;2022-10-18T07:55:57;22.73;;;13.98;;
71296;SDS011;59082;50.658;4.608;2022-10-18T07:58:23;23.63;;;13.20;;
71296;SDS011;59082;50.658;4.608;2022-10-18T08:00:49;24.20;;;14.37;;
71296;SDS011;59082;50.658;4.608;2022-10-18T08:03:14;22.40;;;14.23;;
71296;SDS011;59082;50.658;4.608;2022-10-18T08:05:40;24.00;;;14.93;;
71296;SDS011;59082;50.658;4.608;2022-10-18T08:08:05;24.98;;;13.90;;
71296;SDS011;59082;50.658;4.608;2022-10-18T08:10:31;23.60;;;13.80;;
71296;SDS011;59082;50.658;4.608;2022-10-18T08:12:58;23.63;;;13.55;;
71296;SDS011;59082;50.658;4.608;2022-10-18T08:15:24;28.50;;;14.57;;
71296;SDS011;59082;50.658;4.608;2022-10-18T08:17:50;27.27;;;14.00;;
71296;SDS011;59082;50.658;4.608;2022-10-18T08:20:16;24.83;;;13.95;;
71296;SDS011;59082;50.658;4.608;2022-10-18T08:22:41;24.90;;;15.73;;
71296;SDS011;59082;50.658;4.608;2022-10-18T08:25:07;24.87;;;15.10;;
71296;SDS011;59082;50.658;4.608;2022-10-18T08:27:32;27.80;;;14.30;;
71296;SDS011;59082;50.658;4.608;2022-10-18T08:29:58;26.67;;;15.93;;
71296;SDS011;59082;50.658;4.608;2022-10-18T08:32:25;29.92;;;16.25;;
71296;SDS011;59082;50.658;4.608;2022-10-18T08:34:52;24.97;;;14.77;;
71296;SDS011;59082;50.658;4.608;2022-10-18T08:37:18;26.88;;;15.75;;
71296;SDS011;59082;50.658;4.608;2022-10-18T08:39:44;26.17;;;15.15;;
71296;SDS011;59082;50.658;4.608;2022-10-18T08:42:13;26.77;;;16.07;;
71296;SDS011;59082;50.658;4.608;2022-10-18T08:45:21;28.67;;;15.27;;
71296;SDS011;59082;50.658;4.608;2022-10-18T08:47:47;28.00;;;15.07;;
71296;SDS011;59082;50.658;4.608;2022-10-18T08:50:19;29.88;;;17.42;;
71296;SDS011;59082;50.658;4.608;2022-10-18T08:58:20;31.42;;;18.38;;
71296;SDS011;59082;50.658;4.608;2022-10-18T09:01:33;32.72;;;18.30;;
71296;SDS011;59082;50.658;4.608;2022-10-18T09:06:52;24.33;;;17.02;;
71296;SDS011;59082;50.658;4.608;2022-10-18T09:09:29;23.98;;;15.82;;
71296;SDS011;59082;50.658;4.608;2022-10-18T09:15:07;28.77;;;16.73;;
71296;SDS011;59082;50.658;4.608;2022-10-18T09:17:46;26.50;;;15.40;;
71296;SDS011;59082;50.658;4.608;2022-10-18T09:23:20;28.70;;;17.65;;
71296;SDS011;59082;50.658;4.608;2022-10-18T09:34:17;28.10;;;18.10;;
71296;SDS011;59082;50.658;4.608;2022-10-18T09:36:55;28.27;;;17.55;;
71296;SDS011;59082;50.658;4.608;2022-10-18T09:39:21;20.75;;;14.55;;
71296;SDS011;59082;50.658;4.608;2022-10-18T09:41:53;21.08;;;14.77;;
71296;SDS011;59082;50.658;4.608;2022-10-18T09:44:28;21.90;;;14.87;;
71296;SDS011;59082;50.658;4.608;2022-10-18T09:49:53;19.95;;;13.75;;
71296;SDS011;59082;50.658;4.608;2022-10-18T09:52:35;18.50;;;12.88;;
71296;SDS011;59082;50.658;4.608;2022-10-18T09:55:12;19.42;;;11.95;;
71296;SDS011;59082;50.658;4.608;2022-10-18T09:57:51;14.60;;;9.90;;
71296;SDS011;59082;50.658;4.608;2022-10-18T10:00:25;14.43;;;9.18;;
71296;SDS011;59082;50.658;4.608;2022-10-18T10:02:55;11.93;;;9.35;;
71296;SDS011;59082;50.658;4.608;2022-10-18T10:05:21;11.23;;;9.27;;
71296;SDS011;59082;50.658;4.608;2022-10-18T10:07:47;12.43;;;9.40;;
71296;SDS011;59082;50.658;4.608;2022-10-18T10:12:45;13.32;;;8.30;;
71296;SDS011;59082;50.658;4.608;2022-10-18T10:15:19;15.55;;;8.30;;
71296;SDS011;59082;50.658;4.608;2022-10-18T10:18:15;12.20;;;7.90;;
71296;SDS011;59082;50.658;4.608;2022-10-18T10:20:45;12.35;;;8.00;;
71296;SDS011;59082;50.658;4.608;2022-10-18T10:23:22;12.20;;;6.65;;
71296;SDS011;59082;50.658;4.608;2022-10-18T10:25:51;10.65;;;6.95;;
71296;SDS011;59082;50.658;4.608;2022-10-18T10:28:30;12.20;;;6.80;;
71296;SDS011;59082;50.658;4.608;2022-10-18T10:31:20;10.03;;;7.70;;
71296;SDS011;59082;50.658;4.608;2022-10-18T10:34:03;12.18;;;8.60;;
71296;SDS011;59082;50.658;4.608;2022-10-18T10:36:30;11.75;;;7.75;;
71296;SDS011;59082;50.658;4.608;2022-10-18T10:41:28;9.50;;;6.15;;
71296;SDS011;59082;50.658;4.608;2022-10-18T10:43:54;9.13;;;6.30;;
71296;SDS011;59082;50.658;4.608;2022-10-18T10:46:20;7.00;;;5.82;;
71296;SDS011;59082;50.658;4.608;2022-10-18T10:48:48;7.63;;;6.07;;
71296;SDS011;59082;50.658;4.608;2022-10-18T10:51:15;7.60;;;5.30;;
71296;SDS011;59082;50.658;4.608;2022-10-18T10:56:30;12.23;;;6.40;;
71296;SDS011;59082;50.658;4.608;2022-10-18T10:59:06;9.18;;;6.05;;
71296;SDS011;59082;50.658;4.608;2022-10-18T11:01:39;8.70;;;5.72;;
71296;SDS011;59082;50.658;4.608;2022-10-18T11:09:41;7.37;;;5.23;;
71296;SDS011;59082;50.658;4.608;2022-10-18T11:20:34;8.80;;;6.07;;
71296;SDS011;59082;50.658;4.608;2022-10-18T11:23:09;6.65;;;5.70;;
71296;SDS011;59082;50.658;4.608;2022-10-18T11:28:15;7.20;;;5.23;;
71296;SDS011;59082;50.658;4.608;2022-10-18T11:30:57;6.57;;;4.65;;
71296;SDS011;59082;50.658;4.608;2022-10-18T11:33:45;7.70;;;4.95;;
71296;SDS011;59082;50.658;4.608;2022-10-18T11:44:48;7.07;;;5.00;;
71296;SDS011;59082;50.658;4.608;2022-10-18T11:50:01;7.10;;;3.92;;
71296;SDS011;59082;50.658;4.608;2022-10-18T11:52:43;5.82;;;3.65;;
71296;SDS011;59082;50.658;4.608;2022-10-18T12:01:26;7.60;;;4.35;;
71296;SDS011;59082;50.658;4.608;2022-10-18T12:06:38;8.77;;;3.95;;
71296;SDS011;59082;50.658;4.608;2022-10-18T12:11:56;12.23;;;5.32;;
71296;SDS011;59082;50.658;4.608;2022-10-18T12:14:27;5.65;;;4.40;;
71296;SDS011;59082;50.658;4.608;2022-10-18T12:16:59;9.07;;;4.95;;
71296;SDS011;59082;50.658;4.608;2022-10-18T12:19:28;6.78;;;4.70;;
71296;SDS011;59082;50.658;4.608;2022-10-18T12:22:01;5.17;;;4.63;;
71296;SDS011;59082;50.658;4.608;2022-10-18T12:24:36;8.30;;;5.15;;
71296;SDS011;59082;50.658;4.608;2022-10-18T12:27:02;8.27;;;5.05;;
71296;SDS011;59082;50.658;4.608;2022-10-18T12:32:15;8.43;;;4.47;;
71296;SDS011;59082;50.658;4.608;2022-10-18T12:34:55;7.65;;;4.40;;
71296;SDS011;59082;50.658;4.608;2022-10-18T12:40:20;9.95;;;4.97;;
71296;SDS011;59082;50.658;4.608;2022-10-18T12:42:47;10.68;;;5.78;;
71296;SDS011;59082;50.658;4.608;2022-10-18T12:45:24;7.87;;;4.77;;
71296;SDS011;59082;50.658;4.608;2022-10-18T12:47:53;8.27;;;4.10;;
71296;SDS011;59082;50.658;4.608;2022-10-18T12:50:36;7.53;;;5.22;;
71296;SDS011;59082;50.658;4.608;2022-10-18T12:53:19;7.05;;;3.92;;
71296;SDS011;59082;50.658;4.608;2022-10-18T12:55:50;4.10;;;3.47;;
71296;SDS011;59082;50.658;4.608;2022-10-18T13:16:27;7.10;;;4.32;;
71296;SDS011;59082;50.658;4.608;2022-10-18T13:19:00;8.85;;;4.40;;
71296;SDS011;59082;50.658;4.608;2022-10-18T13:21:46;5.53;;;3.78;;
71296;SDS011;59082;50.658;4.608;2022-10-18T13:24:43;5.17;;;3.50;;
71296;SDS011;59082;50.658;4.608;2022-10-18T13:27:37;4.63;;;3.60;;
71296;SDS011;59082;50.658;4.608;2022-10-18T13:35:59;5.78;;;3.55;;
71296;SDS011;59082;50.658;4.608;2022-10-18T13:46:21;4.20;;;3.33;;
71296;SDS011;59082;50.658;4.608;2022-10-18T13:48:49;6.57;;;3.95;;
71296;SDS011;59082;50.658;4.608;2022-10-18T13:57:05;6.82;;;3.65;;
71296;SDS011;59082;50.658;4.608;2022-10-18T14:08:36;5.35;;;3.30;;
71296;SDS011;59082;50.658;4.608;2022-10-18T14:14:15;8.45;;;3.67;;
71296;SDS011;59082;50.658;4.608;2022-10-18T14:22:24;9.23;;;3.95;;
71296;SDS011;59082;50.658;4.608;2022-10-18T14:24:55;9.88;;;3.75;;
71296;SDS011;59082;50.658;4.608;2022-10-18T14:27:29;3.72;;;2.45;;
71296;SDS011;59082;50.658;4.608;2022-10-18T14:30:12;5.47;;;2.20;;
71296;SDS011;59082;50.658;4.608;2022-10-18T14:32:47;6.40;;;2.00;;
71296;SDS011;59082;50.658;4.608;2022-10-18T14:35:15;4.85;;;2.03;;
71296;SDS011;59082;50.658;4.608;2022-10-18T14:37:44;6.28;;;2.30;;
71296;SDS011;59082;50.658;4.608;2022-10-18T14:43:17;5.13;;;2.35;;
71296;SDS011;59082;50.658;4.608;2022-10-18T14:45:44;3.90;;;2.37;;
71296;SDS011;59082;50.658;4.608;2022-10-18T14:50:40;6.28;;;3.28;;
71296;SDS011;59082;50.658;4.608;2022-10-18T14:53:10;6.67;;;2.53;;
71296;SDS011;59082;50.658;4.608;2022-10-18T14:55:40;4.35;;;3.03;;
71296;SDS011;59082;50.658;4.608;2022-10-18T14:58:13;7.57;;;3.03;;
71296;SDS011;59082;50.658;4.608;2022-10-18T15:00:40;5.18;;;2.30;;
71296;SDS011;59082;50.658;4.608;2022-10-18T15:03:05;12.70;;;2.40;;
71296;SDS011;59082;50.658;4.608;2022-10-18T15:05:37;6.95;;;2.15;;
71296;SDS011;59082;50.658;4.608;2022-10-18T15:08:25;7.22;;;2.25;;
71296;SDS011;59082;50.658;4.608;2022-10-18T15:10:55;3.83;;;1.75;;
71296;SDS011;59082;50.658;4.608;2022-10-18T15:13:21;8.23;;;1.70;;
71296;SDS011;59082;50.658;4.608;2022-10-18T15:15:49;7.40;;;1.87;;
71296;SDS011;59082;50.658;4.608;2022-10-18T15:18:19;4.82;;;1.77;;
71296;SDS011;59082;50.658;4.608;2022-10-18T15:21:05;5.07;;;2.13;;
71296;SDS011;59082;50.658;4.608;2022-10-18T15:23:31;8.18;;;2.25;;
71296;SDS011;59082;50.658;4.608;2022-10-18T15:26:04;7.30;;;2.23;;
71296;SDS011;59082;50.658;4.608;2022-10-18T15:28:43;4.60;;;1.67;;
71296;SDS011;59082;50.658;4.608;2022-10-18T15:31:36;6.47;;;2.38;;
71296;SDS011;59082;50.658;4.608;2022-10-18T15:34:40;5.38;;;2.03;;
71296;SDS011;59082;50.658;4.608;2022-10-18T15:37:00;4.70;;;1.90;;
71296;SDS011;59082;50.658;4.608;2022-10-18T15:39:41;5.97;;;2.90;;
71296;SDS011;59082;50.658;4.608;2022-10-18T15:42:30;4.90;;;1.77;;
71296;SDS011;59082;50.658;4.608;2022-10-18T15:44:58;4.40;;;1.70;;
71296;SDS011;59082;50.658;4.608;2022-10-18T15:47:24;5.28;;;1.77;;
71296;SDS011;59082;50.658;4.608;2022-10-18T15:54:46;5.70;;;1.57;;
71296;SDS011;59082;50.658;4.608;2022-10-18T15:57:12;7.22;;;1.50;;
71296;SDS011;59082;50.658;4.608;2022-10-18T15:59:47;4.65;;;1.65;;
71296;SDS011;59082;50.658;4.608;2022-10-18T16:02:17;5.43;;;1.80;;
71296;SDS011;59082;50.658;4.608;2022-10-18T16:04:43;6.18;;;2.50;;
71296;SDS011;59082;50.658;4.608;2022-10-18T16:07:09;4.70;;;1.77;;
71296;SDS011;59082;50.658;4.608;2022-10-18T16:09:35;8.73;;;1.70;;
71296;SDS011;59082;50.658;4.608;2022-10-18T16:12:02;8.70;;;2.13;;
71296;SDS011;59082;50.658;4.608;2022-10-18T16:14:28;8.57;;;2.58;;
71296;SDS011;59082;50.658;4.608;2022-10-18T16:16:55;8.85;;;2.05;;
71296;SDS011;59082;50.658;4.608;2022-10-18T16:19:24;9.52;;;1.90;;
71296;SDS011;59082;50.658;4.608;2022-10-18T16:21:50;10.00;;;2.53;;
71296;SDS011;59082;50.658;4.608;2022-10-18T16:24:17;6.50;;;2.17;;
71296;SDS011;59082;50.658;4.608;2022-10-18T16:26:43;5.15;;;2.22;;
71296;SDS011;59082;50.658;4.608;2022-10-18T16:29:17;9.60;;;2.50;;
71296;SDS011;59082;50.658;4.608;2022-10-18T16:31:48;6.30;;;2.50;;
71296;SDS011;59082;50.658;4.608;2022-10-18T16:34:16;9.10;;;3.00;;
71296;SDS011;59082;50.658;4.608;2022-10-18T16:36:42;9.00;;;3.30;;
71296;SDS011;59082;50.658;4.608;2022-10-18T16:39:14;7.65;;;3.05;;
71296;SDS011;59082;50.658;4.608;2022-10-18T16:41:41;6.45;;;3.08;;
71296;SDS011;59082;50.658;4.608;2022-10-18T16:44:08;7.83;;;3.13;;
71296;SDS011;59082;50.658;4.608;2022-10-18T16:46:38;7.00;;;3.17;;
71296;SDS011;59082;50.658;4.608;2022-10-18T16:49:04;5.68;;;2.63;;
71296;SDS011;59082;50.658;4.608;2022-10-18T16:51:31;10.85;;;3.88;;
71296;SDS011;59082;50.658;4.608;2022-10-18T16:53:56;12.03;;;3.50;;
71296;SDS011;59082;50.658;4.608;2022-10-18T16:56:28;6.30;;;3.13;;
71296;SDS011;59082;50.658;4.608;2022-10-18T16:58:56;8.15;;;2.83;;
71296;SDS011;59082;50.658;4.608;2022-10-18T17:01:23;8.52;;;3.40;;
71296;SDS011;59082;50.658;4.608;2022-10-18T17:03:49;6.83;;;3.40;;
71296;SDS011;59082;50.658;4.608;2022-10-18T17:06:20;5.70;;;3.58;;
71296;SDS011;59082;50.658;4.608;2022-10-18T17:08:48;7.25;;;3.28;;
71296;SDS011;59082;50.658;4.608;2022-10-18T17:11:14;9.65;;;3.75;;
71296;SDS011;59082;50.658;4.608;2022-10-18T17:13:41;13.60;;;3.42;;
71296;SDS011;59082;50.658;4.608;2022-10-18T17:16:12;8.83;;;3.47;;
71296;SDS011;59082;50.658;4.608;2022-10-18T17:19:04;9.95;;;4.30;;
71296;SDS011;59082;50.658;4.608;2022-10-18T17:21:32;9.38;;;3.55;;
71296;SDS011;59082;50.658;4.608;2022-10-18T17:23:57;10.07;;;4.43;;
71296;SDS011;59082;50.658;4.608;2022-10-18T17:26:25;8.63;;;3.50;;
71296;SDS011;59082;50.658;4.608;2022-10-18T17:28:52;9.95;;;3.58;;
71296;SDS011;59082;50.658;4.608;2022-10-18T17:31:18;6.20;;;3.70;;
71296;SDS011;59082;50.658;4.608;2022-10-18T17:33:45;9.98;;;4.05;;
71296;SDS011;59082;50.658;4.608;2022-10-18T17:36:10;6.77;;;3.57;;
71296;SDS011;59082;50.658;4.608;2022-10-18T17:38:36;13.25;;;3.55;;
71296;SDS011;59082;50.658;4.608;2022-10-18T17:41:07;8.53;;;3.17;;
71296;SDS011;59082;50.658;4.608;2022-10-18T17:43:37;10.88;;;3.70;;
71296;SDS011;59082;50.658;4.608;2022-10-18T17:46:03;7.80;;;3.15;;
71296;SDS011;59082;50.658;4.608;2022-10-18T17:48:29;7.67;;;2.97;;
71296;SDS011;59082;50.658;4.608;2022-10-18T17:50:55;10.65;;;2.70;;
71296;SDS011;59082;50.658;4.608;2022-10-18T17:53:20;8.43;;;3.37;;
71296;SDS011;59082;50.658;4.608;2022-10-18T17:55:50;14.00;;;3.27;;
71296;SDS011;59082;50.658;4.608;2022-10-18T17:58:24;11.48;;;3.10;;
71296;SDS011;59082;50.658;4.608;2022-10-18T18:00:49;9.05;;;4.13;;
71296;SDS011;59082;50.658;4.608;2022-10-18T18:03:15;12.50;;;3.77;;
71296;SDS011;59082;50.658;4.608;2022-10-18T18:05:41;10.23;;;3.40;;
71296;SDS011;59082;50.658;4.608;2022-10-18T18:08:06;13.25;;;4.78;;
71296;SDS011;59082;50.658;4.608;2022-10-18T18:10:32;7.33;;;3.87;;
71296;SDS011;59082;50.658;4.608;2022-10-18T18:12:58;12.00;;;3.72;;
71296;SDS011;59082;50.658;4.608;2022-10-18T18:15:24;9.43;;;3.43;;
71296;SDS011;59082;50.658;4.608;2022-10-18T18:17:49;9.60;;;3.67;;
71296;SDS011;59082;50.658;4.608;2022-10-18T18:20:15;8.50;;;4.60;;
71296;SDS011;59082;50.658;4.608;2022-10-18T18:22:41;8.77;;;4.23;;
71296;SDS011;59082;50.658;4.608;2022-10-18T18:25:06;13.75;;;4.35;;
71296;SDS011;59082;50.658;4.608;2022-10-18T18:27:33;8.38;;;3.47;;
71296;SDS011;59082;50.658;4.608;2022-10-18T18:29:59;13.80;;;3.20;;
71296;SDS011;59082;50.658;4.608;2022-10-18T18:32:25;13.68;;;3.78;;
71296;SDS011;59082;50.658;4.608;2022-10-18T18:34:51;9.60;;;4.73;;
71296;SDS011;59082;50.658;4.608;2022-10-18T18:37:16;9.73;;;4.25;;
71296;SDS011;59082;50.658;4.608;2022-10-18T18:39:42;12.07;;;4.17;;
71296;SDS011;59082;50.658;4.608;2022-10-18T18:42:07;7.13;;;3.63;;
71296;SDS011;59082;50.658;4.608;2022-10-18T18:44:34;11.25;;;3.95;;
71296;SDS011;59082;50.658;4.608;2022-10-18T18:47:00;12.70;;;4.35;;
71296;SDS011;59082;50.658;4.608;2022-10-18T18:49:26;7.73;;;3.03;;
71296;SDS011;59082;50.658;4.608;2022-10-18T18:51:52;13.23;;;4.65;;
71296;SDS011;59082;50.658;4.608;2022-10-18T18:54:18;11.13;;;4.22;;
71296;SDS011;59082;50.658;4.608;2022-10-18T18:56:44;14.80;;;3.60;;
71296;SDS011;59082;50.658;4.608;2022-10-18T18:59:13;10.02;;;4.43;;
71296;SDS011;59082;50.658;4.608;2022-10-18T19:01:39;13.75;;;4.35;;
71296;SDS011;59082;50.658;4.608;2022-10-18T19:04:05;10.67;;;4.63;;
71296;SDS011;59082;50.658;4.608;2022-10-18T19:06:41;11.50;;;4.45;;
71296;SDS011;59082;50.658;4.608;2022-10-18T19:09:09;12.48;;;5.32;;
71296;SDS011;59082;50.658;4.608;2022-10-18T19:11:50;9.77;;;5.30;;
71296;SDS011;59082;50.658;4.608;2022-10-18T19:14:20;12.63;;;4.80;;
71296;SDS011;59082;50.658;4.608;2022-10-18T19:16:48;9.73;;;4.88;;
71296;SDS011;59082;50.658;4.608;2022-10-18T19:19:16;8.48;;;4.75;;
71296;SDS011;59082;50.658;4.608;2022-10-18T19:21:52;7.93;;;4.80;;
71296;SDS011;59082;50.658;4.608;2022-10-18T19:24:19;14.50;;;4.60;;
71296;SDS011;59082;50.658;4.608;2022-10-18T19:26:48;9.18;;;4.28;;
71296;SDS011;59082;50.658;4.608;2022-10-18T20:44:22;13.18;;;6.70;;
71296;SDS011;59082;50.658;4.608;2022-10-18T20:46:50;9.70;;;5.90;;
71296;SDS011;59082;50.658;4.608;2022-10-18T20:49:15;15.10;;;7.63;;
71296;SDS011;59082;50.658;4.608;2022-10-18T20:51:41;18.20;;;7.15;;
71296;SDS011;59082;50.658;4.608;2022-10-18T20:54:07;15.73;;;7.10;;
71296;SDS011;59082;50.658;4.608;2022-10-18T20:56:33;11.47;;;7.27;;
71296;SDS011;59082;50.658;4.608;2022-10-18T20:59:02;16.92;;;6.32;;
71296;SDS011;59082;50.658;4.608;2022-10-18T21:01:30;14.10;;;6.95;;
71296;SDS011;59082;50.658;4.608;2022-10-18T21:03:58;11.15;;;6.80;;
71296;SDS011;59082;50.658;4.608;2022-10-18T21:06:29;9.80;;;7.35;;
71296;SDS011;59082;50.658;4.608;2022-10-18T21:08:57;16.77;;;7.37;;
71296;SDS011;59082;50.658;4.608;2022-10-18T21:11:24;16.02;;;6.93;;
71296;SDS011;59082;50.658;4.608;2022-10-18T21:13:52;15.18;;;7.53;;
71296;SDS011;59082;50.658;4.608;2022-10-18T21:16:19;13.60;;;7.68;;
71296;SDS011;59082;50.658;4.608;2022-10-18T21:18:45;13.77;;;7.85;;
